Snow/Ice From: 16-12-2017 16:00 Until: 17-12-2017 16:00 warning for: Snow/Ice Level: Yellow info button

Although rather usual in this region, locally or potentially dangerous phenomena are expected. (such as local winds, summer thunderstorms, rising streams or high waves) Be aware and pay attention to the latest weather updates, especially if you carry out activities exposed to weather or close to a stream or shoreline. 


Meteo18 Weather Cam more information Meteo18 Weather Cam


Thunder radar more information blitzortung!


warning for Snow/Ice more information rain snow radar


Visit our other weather sites:

Template documentation
and downloads

And another site



Weather Underground History page Text

Daily Summary for November 11, 2017 Units:  English    Metric   Both
« Previous Day
Next Day »
Daily Weekly Monthly Yearly Custom
  High: Low: Average:
Temperature: 54.1 °F 46.4 °F 51.3 °F
Dew Point: 52.7 °F 43 °F 49.6 °F
Humidity: 96 % 85 % 94 %
Wind Speed: 17 mph 0 mph 7.3 mph
Wind Gust: 22 mph - -
Wind:- - West
Pressure: 30.3 in 30 in -
Precipitation: 0.29 in    
Historical Graphs
 
 
Tabular Data for November 11, 2017
Time Temperature Dew Point Pressure Wind Wind Speed Wind Gust Humidity Rainfall Rate (Hourly)
00:02 48.4 °F 44.1 °F 30.3 in NW 6 mph 8 mph 85 % 0 in
00:07 48.4 °F 44.1 °F 30.3 in WNW 3 mph 8 mph 85 % 0 in
00:12 48.4 °F 44.1 °F 30.3 in WNW 4 mph 8 mph 85 % 0 in
00:17 48.2 °F 43.9 °F 30.3 in WNW 4 mph 8 mph 85 % 0 in
00:22 48 °F 44.1 °F 30.3 in NNW 2 mph 7 mph 86 % 0 in
00:32 48 °F 44.1 °F 30.3 in WNW 2 mph 7 mph 86 % 0 in
00:42 48 °F 44.4 °F 30.3 in SSW 2 mph 8 mph 87 % 0 in
00:47 48 °F 44.4 °F 30.3 in NW 2 mph 9 mph 87 % 0 in
00:52 48 °F 44.4 °F 30.3 in WSW 1 mph 9 mph 87 % 0 in
00:57 48 °F 44.4 °F 30.3 in WNW 5 mph 9 mph 87 % 0 in
01:02 48 °F 44.4 °F 30.3 in WNW 6 mph 8 mph 87 % 0 in
01:07 48 °F 44.4 °F 30.3 in West 5 mph 8 mph 87 % 0 in
01:12 48 °F 44.4 °F 30.3 in West 3 mph 8 mph 87 % 0 in
01:17 48 °F 44.4 °F 30.3 in West 4 mph 8 mph 87 % 0 in
01:22 48 °F 44.4 °F 30.3 in WSW 3 mph 8 mph 87 % 0 in
01:27 48 °F 44.4 °F 30.3 in WNW 2 mph 9 mph 87 % 0 in
01:32 48 °F 44.4 °F 30.3 in West 3 mph 9 mph 87 % 0 in
01:37 48 °F 44.4 °F 30.3 in WNW 5 mph 9 mph 87 % 0 in
01:42 48 °F 44.4 °F 30.3 in West 2 mph 10 mph 87 % 0 in
01:47 48 °F 44.6 °F 30.3 in WNW 1 mph 10 mph 88 % 0 in
01:52 48 °F 44.6 °F 30.3 in WNW 2 mph 10 mph 88 % 0 in
01:57 48 °F 44.6 °F 30.3 in West 1 mph 6 mph 88 % 0 in
02:02 47.8 °F 44.4 °F 30.3 in WNW 6 mph 6 mph 88 % 0 in
02:07 48 °F 44.6 °F 30.3 in WNW 4 mph 7 mph 88 % 0 in
02:12 48 °F 44.6 °F 30.3 in WNW 3 mph 7 mph 88 % 0 in
02:17 47.8 °F 44.2 °F 30.3 in West 3 mph 7 mph 87 % 0 in
02:22 47.8 °F 44.2 °F 30.3 in WSW 3 mph 7 mph 87 % 0 in
02:27 47.7 °F 44.2 °F 30.3 in WSW 2 mph 5 mph 88 % 0 in
02:32 47.7 °F 44.2 °F 30.3 in WSW 4 mph 5 mph 88 % 0 in
02:37 47.7 °F 44.2 °F 30.3 in WSW 2 mph 5 mph 88 % 0 in
02:42 46.4 °F 43 °F 30.3 in West 1 mph 5 mph 88 % 0 in
02:52 46.8 °F 43.3 °F 30.2 in Calm   3 mph 88 % 0 in
02:57 46.8 °F 43.3 °F 30.3 in Calm   2 mph 88 % 0 in
08:42 47.3 °F 46.2 °F 30.1 in SW 13 mph 16 mph 96 % 0 in
08:47 47.3 °F 46.2 °F 30.1 in SW 6 mph 16 mph 96 % 0 in
08:52 47.5 °F 46.4 °F 30.1 in WSW 10 mph 16 mph 96 % 0 in
09:02 47.5 °F 46.4 °F 30.1 in SW 9 mph 18 mph 96 % 0 in
09:07 47.5 °F 46.4 °F 30.1 in WSW 3 mph 18 mph 96 % 0 in
09:12 47.5 °F 46.4 °F 30.1 in West 11 mph 18 mph 96 % 0.01 in
09:17 47.5 °F 46.4 °F 30.1 in West 5 mph 18 mph 96 % 0.01 in
09:22 47.7 °F 46.6 °F 30.1 in WSW 6 mph 18 mph 96 % 0.01 in
09:27 47.7 °F 46.6 °F 30.1 in West 6 mph 19 mph 96 % 0.01 in
09:32 47.7 °F 46.6 °F 30.1 in SW 8 mph 19 mph 96 % 0.01 in
09:37 47.8 °F 46.8 °F 30.1 in West 8 mph 17 mph 96 % 0.01 in
09:42 47.8 °F 46.8 °F 30.1 in SW 10 mph 17 mph 96 % 0.01 in
09:47 47.8 °F 46.8 °F 30.1 in SW 9 mph 17 mph 96 % 0.02 in
09:57 48 °F 46.9 °F 30.1 in WSW 3 mph 14 mph 96 % 0.02 in
10:02 48.2 °F 47.1 °F 30.1 in WSW 6 mph 17 mph 96 % 0.02 in
10:12 48.4 °F 47.3 °F 30.1 in West 12 mph 20 mph 96 % 0.02 in
10:17 48.4 °F 47.3 °F 30.1 in West 10 mph 20 mph 96 % 0.02 in
10:27 48.6 °F 47.5 °F 30.1 in WSW 5 mph 16 mph 96 % 0.04 in
10:32 48.6 °F 47.5 °F 30.1 in SW 7 mph 16 mph 96 % 0.04 in
10:42 48.7 °F 47.7 °F 30.1 in SW 6 mph 16 mph 96 % 0.03 in
10:47 48.7 °F 47.7 °F 30.1 in SW 13 mph 17 mph 96 % 0.03 in
10:52 48.7 °F 47.7 °F 30.1 in West 13 mph 17 mph 96 % 0.03 in
10:57 48.9 °F 47.8 °F 30.1 in SW 11 mph 17 mph 96 % 0.03 in
11:02 48.9 °F 47.8 °F 30.1 in WSW 8 mph 15 mph 96 % 0.02 in
11:12 49.3 °F 48.2 °F 30.1 in SW 9 mph 22 mph 96 % 0.03 in
11:17 49.3 °F 48.2 °F 30.1 in SSW 9 mph 22 mph 96 % 0.03 in
11:27 49.5 °F 48.4 °F 30.1 in West 11 mph 16 mph 96 % 0.02 in
11:32 49.6 °F 48.6 °F 30.1 in WSW 7 mph 16 mph 96 % 0.02 in
11:42 49.6 °F 48.6 °F 30.1 in SW 8 mph 19 mph 96 % 0.02 in
11:47 49.8 °F 48.7 °F 30.1 in West 8 mph 19 mph 96 % 0.02 in
11:52 49.8 °F 48.7 °F 30.1 in WSW 7 mph 16 mph 96 % 0.01 in
11:57 50 °F 48.9 °F 30.1 in WSW 7 mph 18 mph 96 % 0.01 in
12:02 50.2 °F 49.1 °F 30.1 in WSW 11 mph 18 mph 96 % 0.01 in
12:12 50.4 °F 49.3 °F 30.1 in SW 6 mph 21 mph 96 % 0.01 in
12:22 50.5 °F 49.5 °F 30.1 in WSW 7 mph 21 mph 96 % 0.01 in
12:32 50.7 °F 49.6 °F 30.1 in West 11 mph 19 mph 96 % 0.01 in
12:42 50.9 °F 49.8 °F 30.1 in SW 6 mph 19 mph 96 % 0.02 in
12:47 50.9 °F 49.8 °F 30.1 in West 7 mph 19 mph 96 % 0.02 in
12:52 51.1 °F 50 °F 30.1 in West 10 mph 19 mph 96 % 0.02 in
13:02 51.1 °F 49.6 °F 30.1 in SW 17 mph 18 mph 95 % 0.02 in
13:12 51.4 °F 50 °F 30.1 in West 12 mph 20 mph 95 % 0.02 in
13:17 51.4 °F 50 °F 30.1 in West 10 mph 20 mph 95 % 0.03 in
13:22 51.4 °F 50 °F 30.1 in SW 7 mph 20 mph 95 % 0.04 in
13:27 51.6 °F 50.2 °F 30.1 in West 9 mph 18 mph 95 % 0.04 in
13:32 51.6 °F 50.2 °F 30.1 in WSW 10 mph 18 mph 95 % 0.05 in
13:37 51.6 °F 50.2 °F 30.1 in WSW 6 mph 18 mph 95 % 0.06 in
13:42 51.6 °F 50.2 °F 30.1 in SW 8 mph 18 mph 95 % 0.05 in
13:47 51.8 °F 50.4 °F 30 in West 5 mph 17 mph 95 % 0.06 in
13:57 52 °F 50.5 °F 30 in West 5 mph 21 mph 95 % 0.06 in
14:02 52 °F 50.5 °F 30 in SW 9 mph 21 mph 95 % 0.05 in
14:07 52 °F 50.5 °F 30 in WSW 17 mph 20 mph 95 % 0.06 in
14:12 52 °F 50.5 °F 30 in West 14 mph 18 mph 95 % 0.06 in
14:17 52 °F 50.5 °F 30 in WSW 10 mph 18 mph 95 % 0.05 in
14:22 52 °F 50.5 °F 30 in West 8 mph 18 mph 95 % 0.05 in
14:27 52 °F 50.5 °F 30 in WSW 10 mph 17 mph 95 % 0.05 in
14:32 52 °F 50.5 °F 30 in WSW 6 mph 17 mph 95 % 0.05 in
14:37 52 °F 50.5 °F 30 in WSW 13 mph 17 mph 95 % 0.05 in
14:42 52 °F 50.5 °F 30 in WSW 4 mph 17 mph 95 % 0.05 in
14:47 52 °F 50.5 °F 30 in WSW 10 mph 17 mph 95 % 0.06 in
14:52 52 °F 50.5 °F 30 in WSW 12 mph 17 mph 95 % 0.06 in
14:57 52.2 °F 50.7 °F 30 in SW 9 mph 17 mph 95 % 0.06 in
15:02 52.2 °F 50.7 °F 30 in WSW 7 mph 17 mph 95 % 0.06 in
15:12 52.2 °F 50.7 °F 30 in WSW 8 mph 17 mph 95 % 0.06 in
15:17 52.2 °F 50.7 °F 30 in West 6 mph 15 mph 95 % 0.06 in
15:22 52.2 °F 50.7 °F 30 in West 10 mph 15 mph 95 % 0.06 in
15:27 52.3 °F 50.9 °F 30 in West 10 mph 16 mph 95 % 0.06 in
15:32 52.3 °F 50.9 °F 30 in WSW 7 mph 16 mph 95 % 0.06 in
15:37 52.3 °F 50.9 °F 30 in West 6 mph 16 mph 95 % 0.05 in
15:42 52.3 °F 50.9 °F 30 in West 8 mph 16 mph 95 % 0.05 in
15:47 52.3 °F 50.9 °F 30 in West 11 mph 16 mph 95 % 0.04 in
15:52 52.3 °F 50.9 °F 30 in West 9 mph 15 mph 95 % 0.04 in
15:57 52.5 °F 51.1 °F 30 in WSW 10 mph 17 mph 95 % 0.04 in
16:02 52.5 °F 51.1 °F 30 in West 7 mph 17 mph 95 % 0.03 in
16:07 52.5 °F 51.1 °F 30 in West 9 mph 17 mph 95 % 0.03 in
16:12 52.5 °F 51.4 °F 30 in SW 8 mph 16 mph 96 % 0.03 in
16:17 52.5 °F 51.4 °F 30 in WSW 8 mph 16 mph 96 % 0.04 in
16:22 52.5 °F 51.4 °F 30 in West 11 mph 16 mph 96 % 0.03 in
16:27 52.5 °F 51.4 °F 30 in WSW 11 mph 17 mph 96 % 0.03 in
16:37 52.7 °F 51.6 °F 30 in West 9 mph 17 mph 96 % 0.03 in
16:42 52.7 °F 51.6 °F 30 in WSW 12 mph 18 mph 96 % 0.03 in
16:47 52.7 °F 51.6 °F 30 in WNW 12 mph 18 mph 96 % 0.02 in
16:52 52.9 °F 51.8 °F 30 in West 10 mph 16 mph 96 % 0.02 in
16:57 52.9 °F 51.8 °F 30 in SW 5 mph 18 mph 96 % 0.02 in
17:02 52.9 °F 51.8 °F 30 in West 8 mph 18 mph 96 % 0.02 in
17:07 52.9 °F 51.8 °F 30 in SW 6 mph 18 mph 96 % 0.02 in
17:12 52.9 °F 51.8 °F 30 in West 4 mph 16 mph 96 % 0.02 in
17:17 52.9 °F 51.8 °F 30 in WSW 5 mph 17 mph 96 % 0.01 in
17:22 52.9 °F 51.8 °F 30 in West 11 mph 17 mph 96 % 0.02 in
17:27 52.9 °F 51.8 °F 30 in West 7 mph 15 mph 96 % 0.02 in
17:32 52.9 °F 51.8 °F 30 in West 7 mph 15 mph 96 % 0.02 in
17:37 52.9 °F 51.8 °F 30 in WSW 10 mph 14 mph 96 % 0.01 in
17:47 52.9 °F 51.8 °F 30 in West 6 mph 16 mph 96 % 0.01 in
17:52 53.1 °F 52 °F 30 in West 7 mph 16 mph 96 % 0.01 in
17:57 53.1 °F 52 °F 30 in West 4 mph 16 mph 96 % 0.01 in
18:02 53.1 °F 52 °F 30 in WSW 7 mph 15 mph 96 % 0.02 in
18:07 53.1 °F 52 °F 30 in West 8 mph 14 mph 96 % 0.02 in
18:12 53.1 °F 52 °F 30 in WSW 5 mph 14 mph 96 % 0.02 in
18:17 53.2 °F 52.2 °F 30 in West 8 mph 13 mph 96 % 0.01 in
18:22 53.2 °F 52.2 °F 30 in West 11 mph 13 mph 96 % 0.01 in
18:32 53.2 °F 52.2 °F 30 in West 7 mph 13 mph 96 % 0.01 in
18:42 53.4 °F 52.3 °F 30 in WSW 5 mph 12 mph 96 % 0.01 in
18:47 53.2 °F 52.2 °F 30 in WNW 9 mph 12 mph 96 % 0.01 in
18:52 53.4 °F 52.3 °F 30 in West 7 mph 12 mph 96 % 0.01 in
18:57 53.4 °F 52.3 °F 30 in West 7 mph 18 mph 96 % 0 in
19:02 53.4 °F 52.3 °F 30 in WSW 4 mph 18 mph 96 % 0 in
19:07 53.4 °F 52.3 °F 30 in West 5 mph 18 mph 96 % 0 in
19:12 53.4 °F 52.3 °F 30 in West 7 mph 16 mph 96 % 0.01 in
19:17 53.4 °F 52.3 °F 30 in West 9 mph 16 mph 96 % 0.01 in
19:27 53.6 °F 52.5 °F 30 in West 7 mph 16 mph 96 % 0.01 in
19:32 53.6 °F 52.5 °F 30 in West 8 mph 16 mph 96 % 0.01 in
19:37 53.8 °F 52.7 °F 30 in WNW 9 mph 16 mph 96 % 0.01 in
19:42 53.8 °F 52.7 °F 30 in WNW 6 mph 16 mph 96 % 0.01 in
19:47 53.8 °F 52.7 °F 30 in West 9 mph 16 mph 96 % 0.01 in
19:52 53.8 °F 52.7 °F 30 in WSW 10 mph 15 mph 96 % 0.01 in
19:57 53.8 °F 52.7 °F 30 in West 5 mph 13 mph 96 % 0.01 in
20:02 53.8 °F 52.7 °F 30 in SW 8 mph 15 mph 96 % 0.01 in
20:07 53.8 °F 52.7 °F 30 in West 9 mph 15 mph 96 % 0 in
20:12 53.8 °F 52.7 °F 30 in West 6 mph 15 mph 96 % 0 in
20:17 53.8 °F 52.7 °F 30 in West 3 mph 14 mph 96 % 0 in
20:22 53.8 °F 52.7 °F 30 in WSW 13 mph 14 mph 96 % 0 in
20:27 53.8 °F 52.7 °F 30 in West 5 mph 16 mph 96 % 0 in
20:32 53.8 °F 52.7 °F 30 in WSW 9 mph 16 mph 96 % 0 in
20:37 53.8 °F 52.7 °F 30 in SW 9 mph 16 mph 96 % 0 in
20:42 53.8 °F 52.7 °F 30 in WSW 12 mph 13 mph 96 % 0 in
20:52 53.8 °F 52.7 °F 30 in West 7 mph 16 mph 96 % 0 in
20:57 53.8 °F 52.7 °F 30 in WSW 8 mph 16 mph 96 % 0 in
21:02 53.8 °F 52.7 °F 30 in WNW 9 mph 14 mph 96 % 0 in
21:07 53.8 °F 52.7 °F 30 in West 6 mph 14 mph 96 % 0 in
21:12 53.8 °F 52.7 °F 30 in WSW 6 mph 14 mph 96 % 0 in
21:17 53.8 °F 52.7 °F 30 in WSW 5 mph 18 mph 96 % 0 in
21:22 53.8 °F 52.7 °F 30 in WNW 3 mph 18 mph 96 % 0 in
21:27 53.8 °F 52.7 °F 30 in West 7 mph 12 mph 96 % 0 in
21:32 53.8 °F 52.7 °F 30 in West 6 mph 13 mph 96 % 0 in
21:37 53.8 °F 52.7 °F 30 in WSW 8 mph 13 mph 96 % 0 in
21:42 53.8 °F 52.7 °F 30 in WNW 8 mph 16 mph 96 % 0 in
21:47 53.8 °F 52.7 °F 30 in West 7 mph 16 mph 96 % 0 in
21:57 53.8 °F 52.7 °F 30 in WNW 8 mph 15 mph 96 % 0 in
22:02 53.8 °F 52.7 °F 30 in WNW 6 mph 15 mph 96 % 0 in
22:07 53.8 °F 52.7 °F 30 in WNW 4 mph 15 mph 96 % 0 in
22:12 53.8 °F 52.3 °F 30 in West 14 mph 15 mph 95 % 0 in
22:17 53.8 °F 52.3 °F 30 in WNW 8 mph 18 mph 95 % 0 in
22:22 53.8 °F 52.3 °F 30 in West 9 mph 18 mph 95 % 0 in
22:27 53.8 °F 52.3 °F 30 in West 11 mph 18 mph 95 % 0 in
22:32 53.8 °F 52.3 °F 30 in WNW 10 mph 15 mph 95 % 0 in
22:37 53.8 °F 52.3 °F 30 in WSW 13 mph 15 mph 95 % 0 in
22:42 53.8 °F 52.3 °F 30 in West 12 mph 15 mph 95 % 0 in
22:47 53.8 °F 52.3 °F 30 in West 6 mph 15 mph 95 % 0 in
22:52 54 °F 52.3 °F 30 in West 13 mph 16 mph 94 % 0 in
22:57 54.1 °F 52.2 °F 30 in WNW 8 mph 17 mph 93 % 0 in
23:02 54.1 °F 52.2 °F 30 in West 12 mph 17 mph 93 % 0 in
23:07 54.1 °F 52.2 °F 30 in WNW 8 mph 16 mph 93 % 0 in
23:12 54.1 °F 52.2 °F 30 in West 8 mph 15 mph 93 % 0 in
23:22 54.1 °F 52.2 °F 30 in West 6 mph 16 mph 93 % 0.01 in
23:27 54 °F 52.3 °F 30 in WNW 10 mph 16 mph 94 % 0.01 in
23:32 53.8 °F 52.2 °F 30 in WSW 9 mph 15 mph 94 % 0.01 in
23:37 53.8 °F 52.2 °F 30 in West 6 mph 15 mph 94 % 0.01 in
23:47 53.6 °F 52.2 °F 30 in West 7 mph 15 mph 95 % 0.01 in
23:52 53.6 °F 52.2 °F 30 in West 7 mph 13 mph 95 % 0.01 in
23:57 53.8 °F 52.2 °F 30 in West 6 mph 15 mph 94 % 0.01 in
Meteo18
Compliments of Weather Underground - 4 mb

Script developed by  Jim McMurry - jmcmurry@mwt.net Adapted for the template by  Wim van der Kuil - Leuven-Template.eu

You find our weather info also at:

European Weather Network

Weather Underground

Equipment we use:

Weather-station
Davis Vue

Weather-program
Meteohub

Weather-server
Raspberry PI 2 B+

Provider
1 and 1

Davis Vue

Meteohub

Raspberry PI 2 B+

1 and 1